Kezdőlap
METAR-TAF:

METAR-TAF

Repülőterek :

Diori Hamani nemzetközi repülőtér

Niamey, Niger

földrajzi szélesség: 13-29N, földrajzi hosszúság: 002-10E, magasság: 223 m

Jelenlegi meteorológiai megfigyelések

A jelentés 1 órával és 3 perccel ezelõtt készült, 00:00 UTC
Nyugat-délnyugati szél 9 kt
Hőmérséklet 36°C
Páratartalom 33%
Légköri nyomás 1008 hPa
Látótávolság: 8000 m

METAR: DRRN 200000Z 24009KT 8000 NSC 36/17 Q1008 NOSIG

Idő: 02:03 (01:03 UTC)

Előrejelzés

A jelentés 2 órával és 3 perccel ezelõtt készült, 23:00 UTC
Az előrejelzés 20-én 00 óra UTC és 21-én 06 óra UTC között érvényes
Déli szél 5 kt
Látótávolság: 8000 m
20-én 07 óra UTC és 20-én 09 óra UTC között fokozatosan kialakuló
Nyugat-délnyugati szél 10 kt

TAF: DRRN 192300Z 2000/2106 18005KT 8000 NSC BECMG 2007/2009 24010KT

Meteorológiai megfigyelések és előrejelzések több, mint 4000 repülőtéren (METAR és TAF jelentéseket).

A térképen piros és sárga pontok jelzik az elérhető meteorológiai állomásokat.

Mozgassa az egeret a pont fölött, hogy megjelenjen az állomás neve.

Azután kattintson az időjárási megfigyelések és előrejelzések megtekintéséhez.

A térkép megváltoztatása: kattintson a fekete keresztel jelölt zöld gombra ráközelítéshez, a vonallal jelölt zöld gombra távolításhoz, vagy a zöld nyilakra a szomszédos térképek eléréséhez.


METAR-TAF: